Time;durP1;ratioP1;P1;durP2;ratioP2;P2;SDS_P1;SDS_P2;PMS_P1;PMS_P2;Temp;Humidity;BMP_temperature;BMP_pressure;BME280_temperature;BME280_humidity;BME280_pressure;Samples;Min_cycle;Max_cycle;Signal;HPM_P1;HPM_P2
2024/01/25 00:02:18;;;;;;;11.52;7.07;;;;;;;12.10;74.14;100362.91;5096910;28;20058;-49
2024/01/25 00:04:44;;;;;;;25.58;22.88;;;;;;;12.16;74.45;100362.25;5114162;28;20054;-49
2024/01/25 00:07:10;;;;;;;15.30;12.57;;;;;;;12.26;73.79;100360.22;5096912;28;20073;-49
2024/01/25 00:09:36;;;;;;;12.00;7.68;;;;;;;12.27;73.35;100359.22;5096938;28;20031;-49
2024/01/25 00:12:01;;;;;;;8.93;6.80;;;;;;;12.30;73.76;100352.81;5097986;28;20032;-50
2024/01/25 00:14:27;;;;;;;15.38;9.68;;;;;;;12.33;73.93;100347.19;5098116;28;20027;-49
2024/01/25 00:16:53;;;;;;;14.07;8.43;;;;;;;12.24;73.72;100346.41;5113814;28;20036;-49
2024/01/25 00:19:19;;;;;;;12.60;8.13;;;;;;;12.14;74.06;100338.72;5098112;28;20031;-49
2024/01/25 00:21:44;;;;;;;138.68;124.28;;;;;;;12.10;74.29;100334.78;5098072;28;20028;-49
2024/01/25 00:24:14;;;;;;;45.78;41.38;;;;;;;12.13;74.66;100339.72;5097974;28;20494;-50
2024/01/25 00:26:40;;;;;;;30.17;26.88;;;;;;;12.15;74.62;100335.09;5098059;28;20035;-50
2024/01/25 00:29:05;;;;;;;23.58;19.15;;;;;;;12.23;75.09;100330.78;5098084;28;20708;-49
2024/01/25 00:31:31;;;;;;;11.43;9.60;;;;;;;12.32;74.77;100329.78;5096408;28;20048;-50
2024/01/25 00:33:57;;;;;;;39.75;35.72;;;;;;;12.28;74.33;100328.47;5096719;28;20520;-49
2024/01/25 00:36:24;;;;;;;18.73;12.55;;;;;;;12.41;74.61;100335.81;5097960;28;20536;-49
2024/01/25 00:38:50;;;;;;;10.23;7.78;;;;;;;12.62;74.66;100332.59;5096640;28;20028;-49
2024/01/25 00:41:19;;;;;;;12.70;7.63;;;;;;;12.74;73.36;100334.66;5109893;28;20047;-49
2024/01/25 00:43:46;;;;;;;10.35;7.13;;;;;;;12.74;73.13;100326.75;5094711;28;20020;-49
2024/01/25 00:46:12;;;;;;;10.45;7.13;;;;;;;12.82;73.19;100331.16;5110306;28;20107;-49
2024/01/25 00:48:40;;;;;;;10.57;7.35;;;;;;;12.93;72.91;100335.19;5110293;28;20032;-49
2024/01/25 00:51:07;;;;;;;13.68;7.28;;;;;;;12.98;71.63;100330.25;5093528;28;20044;-49
2024/01/25 00:53:34;;;;;;;10.15;6.85;;;;;;;12.85;71.48;100327.34;5093227;28;20028;-49
2024/01/25 00:56:00;;;;;;;8.30;6.70;;;;;;;12.81;71.64;100323.44;5094508;28;20024;-49
2024/01/25 00:58:26;;;;;;;8.82;6.45;;;;;;;12.86;72.18;100321.06;5094504;28;20020;-49
2024/01/25 01:00:52;;;;;;;11.35;7.38;;;;;;;12.98;71.72;100322.34;5110035;28;20413;-49
2024/01/25 01:03:19;;;;;;;9.80;8.07;;;;;;;12.92;71.47;100323.03;5110027;28;20028;-49
2024/01/25 01:05:45;;;;;;;56.47;50.90;;;;;;;12.94;71.81;100319.22;5094122;28;20024;-49
2024/01/25 01:08:12;;;;;;;14.77;11.25;;;;;;;12.91;71.59;100316.91;5094246;28;20406;-50
2024/01/25 01:10:38;;;;;;;8.88;6.90;;;;;;;12.92;71.81;100313.31;5094212;28;20145;-49
2024/01/25 01:13:03;;;;;;;11.18;7.53;;;;;;;12.90;71.86;100307.41;5094290;28;20036;-48
2024/01/25 01:15:29;;;;;;;11.38;7.35;;;;;;;12.95;71.85;100299.75;5094087;28;20520;-49
2024/01/25 01:17:55;;;;;;;15.30;8.40;;;;;;;13.00;71.84;100296.63;5094373;28;20027;-49
2024/01/25 01:20:21;;;;;;;11.63;7.10;;;;;;;13.03;71.69;100293.63;5094259;28;20044;-49
2024/01/25 01:22:46;;;;;;;10.05;7.05;;;;;;;13.07;71.65;100284.38;5109924;28;20028;-49
2024/01/25 01:25:12;;;;;;;13.40;11.20;;;;;;;13.12;71.21;100289.94;5092779;28;20081;-49
2024/01/25 01:27:38;;;;;;;10.32;8.15;;;;;;;13.16;71.37;100280.69;5092596;28;20076;-49
2024/01/25 01:30:04;;;;;;;8.27;5.43;;;;;;;13.17;70.51;100287.56;5109733;28;20020;-49
2024/01/25 01:32:30;;;;;;;9.30;5.65;;;;;;;13.11;70.65;100290.91;5109302;28;20079;-49
2024/01/25 01:34:56;;;;;;;7.07;5.43;;;;;;;12.99;70.70;100285.25;5093729;28;20449;-49
2024/01/25 01:37:22;;;;;;;10.27;6.88;;;;;;;12.92;71.45;100286.16;5093929;28;20020;-49
2024/01/25 01:39:47;;;;;;;12.88;7.78;;;;;;;12.96;71.73;100293.50;5109323;28;20023;-49
2024/01/25 01:42:13;;;;;;;11.20;5.78;;;;;;;13.08;71.75;100288.66;5092542;28;20031;-49
2024/01/25 01:44:39;;;;;;;7.60;5.43;;;;;;;13.03;71.16;100290.97;5109170;28;20470;-49
2024/01/25 01:47:05;;;;;;;11.23;5.85;;;;;;;12.95;71.21;100289.22;5092132;28;20027;-49
2024/01/25 01:49:31;;;;;;;8.40;5.45;;;;;;;13.03;71.66;100288.34;5092427;28;20409;-49
2024/01/25 01:51:57;;;;;;;12.07;6.82;;;;;;;13.13;71.40;100291.56;5108821;28;20115;-49
2024/01/25 01:54:24;;;;;;;10.20;6.70;;;;;;;13.16;70.62;100290.41;5093318;28;20068;-50
2024/01/25 01:56:50;;;;;;;10.23;6.43;;;;;;;13.13;71.09;100294.19;5093287;28;20081;-49
2024/01/25 01:59:17;;;;;;;8.70;6.82;;;;;;;13.20;71.06;100289.06;5093244;28;20069;-49
2024/01/25 02:01:42;;;;;;;9.73;6.30;;;;;;;13.36;71.06;100288.94;5108866;28;20028;-49
2024/01/25 02:04:08;;;;;;;8.35;6.30;;;;;;;13.48;70.80;100291.13;5108767;28;20081;-49
2024/01/25 02:06:34;;;;;;;286.20;260.30;;;;;;;13.62;70.60;100289.50;5091773;28;20016;-49
2024/01/25 02:09:00;;;;;;;129.38;116.53;;;;;;;13.68;70.31;100287.00;5092036;28;20111;-49
2024/01/25 02:11:26;;;;;;;35.90;31.95;;;;;;;13.79;70.07;100291.81;5091908;28;20131;-49
2024/01/25 02:13:52;;;;;;;14.07;11.85;;;;;;;13.90;70.22;100289.69;5091926;28;20028;-49
2024/01/25 02:16:19;;;;;;;12.60;8.48;;;;;;;13.91;70.08;100278.97;5092829;28;20447;-49
2024/01/25 02:18:46;;;;;;;9.23;7.90;;;;;;;13.86;70.01;100277.88;5091569;28;20020;-49
2024/01/25 02:21:12;;;;;;;10.38;8.38;;;;;;;13.79;69.95;100278.59;5092810;28;20019;-49
2024/01/25 02:23:39;;;;;;;8.70;6.72;;;;;;;13.63;69.45;100273.50;5092809;28;20041;-49
2024/01/25 02:26:04;;;;;;;9.90;6.40;;;;;;;13.47;69.59;100269.22;5108618;28;20090;-49
2024/01/25 02:28:30;;;;;;;9.85;6.30;;;;;;;13.39;70.26;100262.19;5108364;28;20016;-49
2024/01/25 02:30:57;;;;;;;11.00;6.03;;;;;;;13.38;70.03;100268.47;5091347;28;20016;-49
2024/01/25 02:33:23;;;;;;;11.13;7.60;;;;;;;13.38;69.89;100265.00;5108091;28;20032;-49
2024/01/25 02:35:51;;;;;;;8.43;6.32;;;;;;;13.35;69.72;100268.00;5092589;28;20073;-50
2024/01/25 02:38:17;;;;;;;11.82;7.50;;;;;;;13.37;69.78;100263.38;5092547;28;20103;-49
2024/01/25 02:40:43;;;;;;;7.13;5.65;;;;;;;13.38;70.01;100265.84;5092428;28;20470;-49
2024/01/25 02:43:09;;;;;;;10.77;6.00;;;;;;;13.39;70.03;100269.28;5092660;28;20032;-49
2024/01/25 02:45:34;;;;;;;12.00;6.50;;;;;;;13.26;69.93;100261.97;5092338;28;20023;-49
2024/01/25 02:48:02;;;;;;;12.52;8.73;;;;;;;13.09;70.49;100263.09;5108323;28;20031;-49
2024/01/25 02:50:28;;;;;;;7.53;5.40;;;;;;;12.99;70.66;100255.44;5092284;28;20028;-49
2024/01/25 02:52:54;;;;;;;10.52;6.72;;;;;;;12.90;71.30;100254.69;5091107;28;20034;-49
2024/01/25 02:55:20;;;;;;;7.15;5.07;;;;;;;12.84;71.76;100254.56;5090874;28;20451;-49
2024/01/25 02:57:46;;;;;;;12.30;6.03;;;;;;;12.81;72.29;100249.66;5092221;28;20149;-49
2024/01/25 03:00:13;;;;;;;8.35;4.90;;;;;;;12.87;72.53;100247.13;5092487;28;20099;-49
2024/01/25 03:02:39;;;;;;;9.48;5.18;;;;;;;12.92;72.97;100246.63;5092151;28;20024;-49
2024/01/25 03:05:04;;;;;;;11.18;5.93;;;;;;;13.10;72.68;100239.22;5107308;28;20035;-49
2024/01/25 03:07:30;;;;;;;10.13;7.18;;;;;;;13.21;72.36;100252.97;5090761;28;20020;-49
2024/01/25 03:09:56;;;;;;;9.27;6.18;;;;;;;13.28;71.77;100238.03;5092108;28;20095;-49
2024/01/25 03:12:22;;;;;;;9.32;5.82;;;;;;;13.26;72.21;100245.31;5090640;28;20397;-49
2024/01/25 03:14:48;;;;;;;11.38;6.35;;;;;;;13.29;72.16;100239.69;5091995;28;20524;-49
2024/01/25 03:17:14;;;;;;;9.82;6.15;;;;;;;13.39;72.24;100238.47;5107522;28;20024;-49
2024/01/25 03:19:40;;;;;;;11.30;6.40;;;;;;;13.36;71.52;100233.56;5073853;28;20026;-49
2024/01/25 03:22:05;;;;;;;10.40;6.00;;;;;;;13.37;71.55;100231.75;5091879;28;20532;-49
2024/01/25 03:24:31;;;;;;;11.57;6.15;;;;;;;13.38;71.42;100234.19;5091779;28;20040;-49
2024/01/25 03:26:57;;;;;;;9.85;6.43;;;;;;;13.39;71.26;100232.38;5091805;28;20028;-49
2024/01/25 03:29:23;;;;;;;12.75;5.95;;;;;;;13.49;71.34;100237.38;5091834;28;20027;-49
2024/01/25 03:31:49;;;;;;;7.80;5.50;;;;;;;13.39;70.82;100237.66;5091506;28;20063;-49
2024/01/25 03:34:15;;;;;;;6.95;5.85;;;;;;;13.28;71.42;100236.25;5107750;28;20028;-49
2024/01/25 03:36:41;;;;;;;8.95;6.50;;;;;;;13.29;71.71;100237.06;5107708;28;20438;-49
2024/01/25 03:39:08;;;;;;;10.52;6.57;;;;;;;13.31;71.59;100241.19;5091711;28;20032;-49
2024/01/25 03:41:33;;;;;;;9.85;5.90;;;;;;;13.40;71.66;100241.94;5091996;28;20023;-49
2024/01/25 03:44:02;;;;;;;9.43;5.75;;;;;;;13.30;71.28;100250.09;5107650;28;20024;-49
2024/01/25 03:46:28;;;;;;;10.48;6.85;;;;;;;13.28;71.29;100236.25;5091850;28;20039;-49
2024/01/25 03:48:54;;;;;;;12.75;6.22;;;;;;;13.28;71.53;100236.25;5091672;28;20099;-49
2024/01/25 03:51:20;;;;;;;11.40;6.55;;;;;;;13.33;71.37;100233.09;5091483;28;20081;-49
2024/01/25 03:53:45;;;;;;;10.60;7.07;;;;;;;13.45;71.54;100230.84;5091636;28;20028;-49
2024/01/25 03:56:17;;;;;;;10.30;7.38;;;;;;;13.47;70.91;100234.94;5091577;28;20028;-49
2024/01/25 03:58:44;;;;;;;14.05;5.82;;;;;;;13.45;71.20;100236.13;5091569;28;20024;-49
2024/01/25 04:01:10;;;;;;;10.05;5.75;;;;;;;13.47;70.87;100242.03;5091595;28;20016;-49
2024/01/25 04:03:36;;;;;;;9.68;6.75;;;;;;;13.42;70.95;100241.72;5091536;28;20387;-49
2024/01/25 04:06:02;;;;;;;8.55;6.32;;;;;;;13.39;71.02;100235.81;5107396;28;20510;-49
2024/01/25 04:08:27;;;;;;;10.23;6.63;;;;;;;13.36;70.83;100236.19;5107112;28;20068;-49
2024/01/25 04:10:53;;;;;;;9.15;6.05;;;;;;;13.39;71.23;100230.53;5091448;28;20027;-49
2024/01/25 04:13:19;;;;;;;9.00;5.97;;;;;;;13.52;71.18;100237.00;5091383;28;20555;-49
2024/01/25 04:15:45;;;;;;;6.07;5.15;;;;;;;13.56;70.59;100243.56;5092676;28;20028;-49
2024/01/25 04:18:10;;;;;;;9.27;6.53;;;;;;;13.64;70.69;100248.75;5111252;28;20032;-49
2024/01/25 04:20:36;;;;;;;12.05;7.05;;;;;;;13.71;70.90;100246.22;5095157;28;20109;-49
2024/01/25 04:23:02;;;;;;;9.02;6.18;;;;;;;13.80;70.89;100245.09;5093942;28;20055;-49
2024/01/25 04:25:30;;;;;;;10.93;6.63;;;;;;;13.81;70.41;100248.59;5094996;28;20092;-49
2024/01/25 04:27:56;;;;;;;8.85;6.00;;;;;;;13.72;70.37;100245.22;5111063;28;20077;-49
2024/01/25 04:30:22;;;;;;;10.05;6.40;;;;;;;13.77;70.86;100248.94;5093681;28;20028;-49
2024/01/25 04:32:48;;;;;;;11.32;6.47;;;;;;;13.83;70.19;100243.94;5094611;28;20052;-49
2024/01/25 04:35:13;;;;;;;9.18;6.32;;;;;;;13.72;70.18;100253.13;5110534;28;20028;-49
2024/01/25 04:37:39;;;;;;;11.05;7.75;;;;;;;13.61;70.53;100251.75;5110902;28;20028;-49
2024/01/25 04:40:06;;;;;;;10.32;6.15;;;;;;;13.57;70.70;100243.38;5094789;28;20486;-49
2024/01/25 04:42:31;;;;;;;9.02;6.70;;;;;;;13.64;71.00;100240.03;5094732;28;20027;-49
2024/01/25 04:44:57;;;;;;;10.13;6.43;;;;;;;13.59;70.42;100241.38;5094954;28;20032;-49
2024/01/25 04:47:23;;;;;;;13.50;8.45;;;;;;;13.50;70.79;100239.00;5093596;28;20020;-50
2024/01/25 04:49:49;;;;;;;10.23;6.97;;;;;;;13.49;71.27;100248.75;5110542;28;20032;-49
2024/01/25 04:52:14;;;;;;;8.15;6.20;;;;;;;13.54;71.32;100254.31;5093468;28;20031;-49
2024/01/25 04:54:40;;;;;;;8.63;6.35;;;;;;;13.61;71.38;100253.59;5094585;28;20086;-49
2024/01/25 04:57:06;;;;;;;9.60;6.03;;;;;;;13.70;71.16;100234.84;5094439;28;20024;-49
2024/01/25 04:59:35;;;;;;;8.63;6.40;;;;;;;13.73;71.31;100244.22;5094380;28;20485;-49
2024/01/25 05:02:01;;;;;;;14.32;6.35;;;;;;;13.72;71.59;100240.78;5094387;28;20035;-49
2024/01/25 05:04:29;;;;;;;14.23;6.28;;;;;;;13.76;71.98;100238.56;5094314;28;20103;-49
2024/01/25 05:06:55;;;;;;;9.93;6.07;;;;;;;13.81;71.70;100241.47;5094262;28;20426;-49
2024/01/25 05:09:21;;;;;;;10.85;6.07;;;;;;;13.71;71.42;100241.75;5094199;28;20539;-49
2024/01/25 05:11:47;;;;;;;11.27;5.28;;;;;;;13.75;72.36;100242.22;5094179;28;20032;-49
2024/01/25 05:14:12;;;;;;;9.68;6.18;;;;;;;14.03;72.53;100236.28;5092968;28;20053;-49
2024/01/25 05:16:38;;;;;;;9.77;6.35;;;;;;;14.27;72.51;100233.31;5093104;28;20124;-50
2024/01/25 05:19:04;;;;;;;10.63;6.13;;;;;;;14.50;71.96;100234.97;5109728;28;20056;-49
2024/01/25 05:21:30;;;;;;;9.55;5.65;;;;;;;14.58;71.35;100233.03;5092749;28;20016;-49
2024/01/25 05:23:56;;;;;;;12.85;6.47;;;;;;;14.83;71.81;100230.03;5094006;28;20027;-49
2024/01/25 05:26:21;;;;;;;11.27;6.22;;;;;;;15.08;71.04;100232.28;5109033;28;20028;-49
2024/01/25 05:28:47;;;;;;;8.25;6.32;;;;;;;15.24;70.65;100234.63;5093922;28;20032;-49
2024/01/25 05:31:13;;;;;;;11.90;6.90;;;;;;;15.38;70.15;100233.72;5093579;28;20521;-50
2024/01/25 05:33:42;;;;;;;13.05;6.90;;;;;;;15.55;69.03;100230.75;5093842;28;20024;-49
2024/01/25 05:36:08;;;;;;;9.40;5.70;;;;;;;15.61;68.15;100235.28;5093753;28;20103;-49
2024/01/25 05:38:34;;;;;;;11.43;6.70;;;;;;;15.63;67.93;100235.09;5093704;28;20020;-49
2024/01/25 05:40:59;;;;;;;11.27;5.75;;;;;;;15.72;67.75;100236.56;5109255;28;20026;-49
2024/01/25 05:43:25;;;;;;;13.30;6.28;;;;;;;15.79;67.59;100234.78;5093604;28;20402;-49
2024/01/25 05:45:51;;;;;;;12.77;6.40;;;;;;;15.87;67.43;100237.28;5093492;28;20142;-50
2024/01/25 05:48:17;;;;;;;14.20;6.88;;;;;;;15.96;67.27;100232.66;5093499;28;20487;-49
2024/01/25 05:50:43;;;;;;;9.60;6.30;;;;;;;15.98;67.20;100228.78;5093703;28;20020;-49
2024/01/25 05:53:08;;;;;;;10.20;7.18;;;;;;;16.08;66.77;100225.75;5109050;28;20460;-49
2024/01/25 05:55:34;;;;;;;8.80;5.63;;;;;;;16.01;66.09;100234.69;5093382;28;20023;-49
2024/01/25 05:58:00;;;;;;;13.82;7.32;;;;;;;15.85;65.66;100234.00;5093344;28;20146;-49
2024/01/25 06:00:27;;;;;;;15.23;8.00;;;;;;;15.46;65.45;100231.94;5108904;28;20104;-47
2024/01/25 06:02:53;;;;;;;15.85;8.50;;;;;;;15.08;65.96;100235.72;5093212;28;20016;-47
2024/01/25 06:05:19;;;;;;;8.95;6.30;;;;;;;14.88;66.80;100240.03;5093330;28;20024;-47
2024/01/25 06:07:44;;;;;;;16.20;8.20;;;;;;;14.74;67.42;100234.63;5093158;28;20394;-46
2024/01/25 06:10:10;;;;;;;12.38;6.88;;;;;;;14.84;68.95;100238.78;5108759;28;20073;-47
2024/01/25 06:12:36;;;;;;;15.18;6.47;;;;;;;15.17;69.18;100244.34;5091892;28;20027;-47
2024/01/25 06:15:02;;;;;;;14.40;7.05;;;;;;;15.39;68.86;100234.53;5092982;28;20551;-46
2024/01/25 06:17:28;;;;;;;10.32;6.90;;;;;;;15.50;68.19;100241.94;5092965;28;20027;-47
2024/01/25 06:19:53;;;;;;;16.90;6.25;;;;;;;15.49;67.74;100242.97;5108611;28;20023;-47
2024/01/25 06:22:19;;;;;;;11.73;8.25;;;;;;;15.48;67.59;100233.38;5092774;28;20031;-47
2024/01/25 06:24:45;;;;;;;14.57;6.68;;;;;;;15.51;67.65;100229.50;5091467;28;20105;-47
2024/01/25 06:27:11;;;;;;;17.80;7.65;;;;;;;15.53;68.00;100243.38;5092699;28;20115;-46
2024/01/25 06:29:36;;;;;;;12.40;6.30;;;;;;;15.57;68.00;100239.31;5108409;28;20028;-46
2024/01/25 06:32:02;;;;;;;9.80;5.60;;;;;;;15.59;68.14;100239.94;5092363;28;20510;-47
2024/01/25 06:34:30;;;;;;;22.15;7.32;;;;;;;15.68;67.62;100243.28;5091635;28;20131;-47
2024/01/25 06:36:55;;;;;;;18.05;6.35;;;;;;;15.69;66.77;100235.13;5092580;28;20078;-47
2024/01/25 06:39:21;;;;;;;13.80;5.57;;;;;;;15.67;66.50;100246.91;5091781;28;20069;-47
2024/01/25 06:41:47;;;;;;;9.50;5.50;;;;;;;15.59;66.76;100239.94;5093047;28;20081;-45
2024/01/25 06:44:13;;;;;;;10.25;5.60;;;;;;;15.75;66.67;100233.53;5092469;28;20020;-45
2024/01/25 06:46:39;;;;;;;12.45;10.93;;;;;;;15.81;66.19;100232.75;5092633;28;20059;-45
2024/01/25 06:49:04;;;;;;;9.85;7.30;;;;;;;15.81;66.18;100237.25;5092368;28;20371;-45
2024/01/25 06:51:30;;;;;;;11.38;6.55;;;;;;;15.81;66.07;100240.69;5091082;28;20089;-45
2024/01/25 06:53:56;;;;;;;9.80;6.22;;;;;;;15.68;65.94;100248.56;5108089;28;20024;-45
2024/01/25 06:56:21;;;;;;;10.27;6.45;;;;;;;15.54;66.15;100237.06;5092308;28;20115;-45
2024/01/25 06:58:47;;;;;;;16.83;6.90;;;;;;;15.45;66.68;100246.97;5092260;28;20304;-45
2024/01/25 07:01:13;;;;;;;10.88;6.55;;;;;;;15.36;66.94;100256.09;5092249;28;20106;-45
2024/01/25 07:03:39;;;;;;;16.25;6.43;;;;;;;15.24;67.36;100250.50;5092164;28;20027;-45
2024/01/25 07:06:05;;;;;;;10.32;5.97;;;;;;;15.30;67.74;100257.66;5092083;28;20544;-45
2024/01/25 07:08:31;;;;;;;12.90;7.03;;;;;;;15.48;67.82;100259.84;5092142;28;20561;-45
2024/01/25 07:10:59;;;;;;;10.27;5.57;;;;;;;15.60;67.48;100246.06;5092086;28;20099;-45
2024/01/25 07:13:25;;;;;;;14.07;6.35;;;;;;;15.61;67.26;100245.84;5091879;28;20023;-45
2024/01/25 07:15:50;;;;;;;15.52;7.00;;;;;;;15.64;66.91;100240.19;5092013;28;20028;-45
2024/01/25 07:18:17;;;;;;;11.07;6.90;;;;;;;15.63;67.35;100240.38;5107621;28;20016;-45
2024/01/25 07:20:42;;;;;;;12.48;6.22;;;;;;;15.62;67.09;100242.22;5073864;28;20039;-45
2024/01/25 07:23:08;;;;;;;10.50;6.38;;;;;;;15.57;67.18;100250.75;5091915;28;20028;-45
2024/01/25 07:25:34;;;;;;;13.27;7.05;;;;;;;15.14;67.18;100255.31;5091810;28;20423;-45
2024/01/25 07:27:59;;;;;;;13.20;6.07;;;;;;;15.11;68.26;100255.69;5091866;28;20016;-45
2024/01/25 07:30:25;;;;;;;15.18;6.43;;;;;;;15.25;67.93;100249.50;5091843;28;20103;-45
2024/01/25 07:32:51;;;;;;;10.20;6.15;;;;;;;15.30;67.27;100246.28;5107487;28;20139;-45
2024/01/25 07:35:17;;;;;;;16.17;6.57;;;;;;;15.31;68.24;100243.44;5091777;28;20107;-45
2024/01/25 07:37:43;;;;;;;64.55;58.50;;;;;;;15.62;68.31;100238.75;5091832;28;20016;-45
2024/01/25 07:40:09;;;;;;;138.90;123.10;;;;;;;15.97;67.35;100235.06;5091705;28;20023;-45
2024/01/25 07:42:35;;;;;;;33.20;24.20;;;;;;;16.18;66.17;100223.56;5090447;28;20024;-47
2024/01/25 07:45:01;;;;;;;13.25;8.30;;;;;;;16.32;65.57;100219.13;5091625;28;20435;-47
2024/01/25 07:47:26;;;;;;;17.10;8.90;;;;;;;16.45;64.92;100217.50;5091759;28;20017;-47
2024/01/25 07:49:52;;;;;;;14.77;9.38;;;;;;;16.58;64.91;100226.31;5109161;28;20031;-47
2024/01/25 07:52:18;;;;;;;22.85;7.63;;;;;;;16.81;64.15;100222.47;5095739;28;20490;-47
2024/01/25 07:54:44;;;;;;;11.02;5.70;;;;;;;16.88;63.52;100228.63;5111436;28;20032;-47
2024/01/25 07:57:10;;;;;;;12.30;5.47;;;;;;;16.78;62.93;100233.44;5095561;28;20103;-47
2024/01/25 07:59:37;;;;;;;7.38;4.60;;;;;;;16.57;62.37;100231.78;5095670;28;20514;-47
2024/01/25 08:02:03;;;;;;;14.57;5.55;;;;;;;16.24;63.00;100226.41;5111565;28;20397;-47
2024/01/25 08:04:28;;;;;;;10.95;5.93;;;;;;;15.97;64.02;100218.38;5095446;28;20039;-47
2024/01/25 08:06:54;;;;;;;14.68;5.95;;;;;;;15.88;64.86;100232.81;5095505;28;20499;-47
2024/01/25 08:09:20;;;;;;;15.10;6.20;;;;;;;15.84;65.46;100236.88;5095727;28;20024;-47
2024/01/25 08:11:46;;;;;;;16.02;5.68;;;;;;;15.86;65.57;100242.78;5095405;28;20023;-47
2024/01/25 08:14:11;;;;;;;16.17;6.03;;;;;;;15.82;65.48;100236.25;5095376;28;20046;-47
2024/01/25 08:16:37;;;;;;;13.45;7.78;;;;;;;15.67;65.74;100234.50;5095293;28;20051;-47
2024/01/25 08:19:04;;;;;;;9.73;6.55;;;;;;;15.64;65.21;100226.97;5095272;28;20542;-47
2024/01/25 08:21:30;;;;;;;10.82;6.47;;;;;;;15.50;65.21;100222.59;5095242;28;20103;-47
2024/01/25 08:23:56;;;;;;;15.55;6.50;;;;;;;15.40;65.25;100222.13;5095206;28;20024;-47
2024/01/25 08:26:22;;;;;;;13.20;6.45;;;;;;;15.41;66.08;100216.63;5095008;28;20024;-47
2024/01/25 08:28:47;;;;;;;11.10;5.28;;;;;;;15.55;66.43;100220.19;5110725;28;20101;-47
2024/01/25 08:31:13;;;;;;;16.92;5.68;;;;;;;15.74;65.96;100216.84;5110495;28;20455;-45
2024/01/25 08:33:47;;;;;;;14.27;5.75;;;;;;;15.94;65.73;100213.50;5095016;28;20016;-45
2024/01/25 08:36:19;;;;;;;15.27;7.47;;;;;;;16.28;65.26;100219.69;5093786;28;20034;-45
2024/01/25 08:38:45;;;;;;;18.73;5.60;;;;;;;16.78;64.69;100223.69;5093824;28;20101;-45
2024/01/25 08:41:11;;;;;;;11.25;6.57;;;;;;;17.25;63.71;100225.53;5095052;28;20474;-45
2024/01/25 08:43:37;;;;;;;12.75;6.38;;;;;;;17.50;62.59;100220.38;5095155;28;20531;-45
2024/01/25 08:46:03;;;;;;;15.52;5.80;;;;;;;17.63;61.97;100224.84;5110788;28;20024;-45
2024/01/25 08:48:29;;;;;;;12.10;5.55;;;;;;;17.75;61.43;100229.28;5094705;28;20019;-45
2024/01/25 08:50:54;;;;;;;13.77;5.43;;;;;;;17.98;60.44;100216.59;5094740;28;20059;-47
2024/01/25 08:53:27;;;;;;;12.55;5.72;;;;;;;18.06;59.88;100206.53;5094691;28;20024;-47
2024/01/25 08:55:55;;;;;;;8.27;4.70;;;;;;;18.27;59.15;100199.25;5094705;28;20035;-47
2024/01/25 08:58:22;;;;;;;9.05;5.30;;;;;;;18.46;58.54;100194.84;5094583;28;20020;-47
2024/01/25 09:00:48;;;;;;;12.98;5.28;;;;;;;18.52;58.03;100186.03;5093842;28;20107;-47
2024/01/25 09:03:17;;;;;;;7.60;4.47;;;;;;;18.75;57.56;100190.75;5094499;28;20091;-47
2024/01/25 09:05:45;;;;;;;10.68;4.70;;;;;;;18.94;56.56;100189.81;5094628;28;20035;-45
2024/01/25 09:08:13;;;;;;;10.02;4.50;;;;;;;19.09;55.93;100191.31;5094298;28;20551;-45
2024/01/25 09:10:40;;;;;;;13.90;4.55;;;;;;;19.35;55.51;100180.38;5094310;28;20028;-45
2024/01/25 09:13:06;;;;;;;11.15;5.85;;;;;;;19.70;54.20;100189.66;5094537;28;20028;-45
2024/01/25 09:15:32;;;;;;;16.08;13.68;;;;;;;19.96;53.32;100188.56;5109885;28;20084;-46
2024/01/25 09:17:58;;;;;;;32.40;22.90;;;;;;;20.25;52.47;100186.09;5094175;28;20040;-46
2024/01/25 09:20:25;;;;;;;15.85;9.45;;;;;;;20.17;50.71;100186.44;5092787;28;20516;-45
2024/01/25 09:22:53;;;;;;;8.18;5.90;;;;;;;19.82;51.44;100187.91;5094098;28;20024;-46
2024/01/25 09:25:19;;;;;;;12.57;5.72;;;;;;;19.59;52.36;100188.53;5093862;28;20016;-47
2024/01/25 09:27:45;;;;;;;12.25;5.43;;;;;;;19.52;52.33;100180.63;5109731;28;20386;-47
2024/01/25 09:30:11;;;;;;;14.00;5.80;;;;;;;19.04;53.22;100177.88;5092685;28;20058;-47
2024/01/25 09:32:37;;;;;;;10.35;5.75;;;;;;;18.87;54.04;100180.25;5093661;28;20514;-47
2024/01/25 09:35:03;;;;;;;9.55;4.55;;;;;;;18.98;54.51;100181.41;5109484;28;20020;-47
2024/01/25 09:37:28;;;;;;;9.10;4.82;;;;;;;19.11;53.15;100184.72;5109456;28;20047;-46
2024/01/25 09:39:54;;;;;;;9.63;5.18;;;;;;;19.09;53.77;100184.13;5093770;28;20080;-45
2024/01/25 09:42:20;;;;;;;13.80;5.47;;;;;;;19.42;52.94;100187.50;5093693;28;20016;-45
2024/01/25 09:44:46;;;;;;;8.38;4.88;;;;;;;19.92;52.07;100182.00;5093585;28;20020;-45
2024/01/25 09:47:13;;;;;;;13.68;4.95;;;;;;;20.14;51.51;100191.16;5109248;28;20080;-45
2024/01/25 09:49:39;;;;;;;10.07;4.53;;;;;;;20.10;50.05;100176.66;5093554;28;20440;-45
2024/01/25 09:52:05;;;;;;;14.77;4.47;;;;;;;20.00;51.09;100180.91;5093468;28;20070;-46
2024/01/25 09:54:38;;;;;;;10.80;4.20;;;;;;;20.13;50.56;100175.41;5109158;28;20027;-45
2024/01/25 09:57:18;;;;;;;13.00;4.80;;;;;;;20.33;49.96;100180.44;5093358;28;20031;-45
2024/01/25 09:59:44;;;;;;;14.75;4.30;;;;;;;20.71;49.73;100181.94;5093363;28;20048;-47
2024/01/25 10:02:11;;;;;;;7.70;4.20;;;;;;;21.04;48.96;100181.38;5093265;28;20020;-47
2024/01/25 10:04:37;;;;;;;8.98;4.05;;;;;;;21.27;47.67;100185.91;5093154;28;20020;-47
2024/01/25 10:07:03;;;;;;;10.38;4.60;;;;;;;21.28;46.88;100182.16;5093211;28;20028;-47
2024/01/25 10:09:38;;;;;;;11.85;5.45;;;;;;;21.66;47.52;100180.84;5109130;28;20021;-47
2024/01/25 10:12:05;;;;;;;;;;;;;;;21.85;47.43;100181.50;5093430;28;20579;-47
2024/01/25 10:14:31;;;;;;;13.52;5.05;;;;;;;21.79;46.56;100192.31;5093104;28;20446;-47
2024/01/25 10:16:58;;;;;;;11.40;6.50;;;;;;;21.63;46.34;100200.06;5108633;28;20444;-45
2024/01/25 10:19:24;;;;;;;10.60;5.00;;;;;;;21.17;46.25;100196.34;5092976;28;20085;-45
2024/01/25 10:21:50;;;;;;;19.08;11.25;;;;;;;20.93;47.48;100200.88;5108582;28;20016;-45
2024/01/25 10:24:16;;;;;;;16.08;8.95;;;;;;;20.96;47.18;100195.06;5091528;28;20126;-45
2024/01/25 10:26:42;;;;;;;9.38;6.47;;;;;;;20.84;46.90;100210.25;5092747;28;20016;-45
2024/01/25 10:29:08;;;;;;;14.68;5.65;;;;;;;20.73;47.52;100193.19;5092808;28;20031;-45
2024/01/25 10:31:40;;;;;;;10.32;4.75;;;;;;;20.29;47.89;100198.75;5092468;28;20537;-45
2024/01/25 10:34:12;;;;;;;10.60;4.38;;;;;;;20.08;48.94;100199.22;5092780;28;20045;-45
2024/01/25 10:36:39;;;;;;;7.88;3.55;;;;;;;20.37;49.04;100196.81;5092754;28;20036;-47
2024/01/25 10:39:08;;;;;;;6.13;3.65;;;;;;;20.86;48.18;100200.16;5092618;28;20047;-45
2024/01/25 10:41:35;;;;;;;7.15;4.03;;;;;;;21.25;46.92;100187.16;5092617;28;20028;-47
2024/01/25 10:44:01;;;;;;;9.40;3.78;;;;;;;21.47;46.35;100188.22;5092556;28;20024;-47
2024/01/25 10:46:29;;;;;;;4.90;3.00;;;;;;;21.57;45.39;100181.47;5092404;28;20051;-46
2024/01/25 10:49:01;;;;;;;10.75;3.38;;;;;;;21.35;45.53;100174.84;5092647;28;20492;-46
2024/01/25 10:51:27;;;;;;;6.10;2.92;;;;;;;21.30;45.57;100182.75;5092479;28;20119;-45
2024/01/25 10:53:54;;;;;;;8.85;2.97;;;;;;;21.33;46.02;100184.16;5107983;28;20023;-45
2024/01/25 10:56:21;;;;;;;8.90;2.83;;;;;;;21.26;46.02;100176.25;5092257;28;20038;-46
2024/01/25 10:58:47;;;;;;;3.78;2.45;;;;;;;21.57;45.89;100173.44;5108023;28;20020;-45
2024/01/25 11:01:13;;;;;;;9.55;3.25;;;;;;;21.94;45.07;100161.34;5092121;28;20020;-46
2024/01/25 11:03:40;;;;;;;5.72;2.88;;;;;;;22.18;44.72;100158.59;5108118;28;20043;-45
2024/01/25 11:06:09;;;;;;;4.18;2.83;;;;;;;22.74;43.75;100156.06;5107773;28;20394;-46
2024/01/25 11:08:38;;;;;;;8.13;3.00;;;;;;;23.56;42.00;100154.50;5092128;28;20016;-46
2024/01/25 11:11:07;;;;;;;7.22;3.30;;;;;;;24.72;40.13;100147.06;5092020;28;20035;-46
2024/01/25 11:13:32;;;;;;;7.55;3.20;;;;;;;26.07;37.68;100126.69;5092120;28;20023;-48
2024/01/25 11:15:58;;;;;;;5.70;3.10;;;;;;;26.77;35.96;100139.59;5091979;28;20036;-47